Observations for LORIENT LANN BIHOUE, France (LFRH)

LFRH 200730Z AUTO 05002KT 9999 BKN045 05/05 Q1034 NOSIG 
LFRH 200700Z AUTO 06003KT 7000 BKN046 04/03 Q1034 TEMPO BKN003  
LFRH 200630Z AUTO 03001KT 3500 1600 BR VV/// 03/03 Q1034 BECMG 9999 NSW OVC025  
LFRH 200600Z AUTO 03003KT 0900 0800 R25/1200D R07/1000U FG VV/// 03/02 Q1033 TEMPO 3000 BR BECMG NSC
LFRH 200530Z AUTO 05001KT 0550 0400 R25/0800U R07/0450N FG VV/// 03/03 Q1033 TEMPO 3000 BR BECMG NSC
LFRH 200500Z AUTO 09001KT 0700 0600 R25/0700N R07/0900U FG VV/// 04/03 Q1033 TEMPO 0400 BCFG BKN002 
LFRH 200430Z AUTO 00000KT 0550 0450 R25/0700D R07/0900U FG VV/// 04/04 Q1033 TEMPO BKN002   
LFRH 200400Z AUTO 35002KT 0500 0450 R25/0550N R07///// FG VV/// 04/04 Q1033 TEMPO BKN002
LFRH 200330Z AUTO 32003KT 0600 0450 R25/0550D R07/0450D FG VV/// 04/04 Q1033 TEMPO BKN002   
LFRH 200300Z AUTO 33001KT 0800 0500 R25/1000U R07/1300U FG VV/// 05/04 Q1033 TEMPO 0400 BCFG BKN002 
LFRH 200230Z AUTO 00000KT 0450 0400 R25/0550N R07/0450U FG VV/// 06/06 Q1033 TEMPO BKN002   
LFRH 200200Z AUTO 00000KT 0600 0500 R25/0650U R07/1100D FG VV/// 07/06 Q1033 TEMPO BKN002   
LFRH 200130Z AUTO 04001KT 1300 0650 R25/1100U R07/1500D BCFG FEW004 07/07 Q1033 TEMPO 0400 BCFG BKN002  
LFRH 200100Z AUTO 34001KT 4000 0900 R25/1500D R07/P2000 BCFG SCT027 BKN044 08/07 Q1033 TEMPO 0400 BCFG BKN002   
LFRH 200030Z AUTO 32002KT 9999 OVC028 08/08 Q1033 TEMPO 0400 BCFG BKN002
LFRH 200000Z AUTO 32003KT 9000 FEW024 BKN030 BKN043 08/08 Q1033 TEMPO 3000 BR   
LFRH 192330Z AUTO 29001KT 9999 BKN024 BKN044 09/08 Q1033 TEMPO 3000 BR  
LFRH 192300Z AUTO 27001KT 9999 BKN022 OVC028 09/08 Q1033
LFRH 192230Z AUTO 29002KT 9999 SCT011 SCT018 BKN024 09/08 Q1033 
LFRH 192200Z AUTO 32002KT 9999 BKN011 BKN017 BKN032 09/09 Q1033 
LFRH 192130Z AUTO 29001KT 9999 BKN030 BKN036 OVC045 09/09 Q1033 
LFRH 192100Z AUTO 27002KT 9999 BKN031 OVC046 09/09 Q1033
LFRH 192030Z AUTO 00000KT 9999 BKN032 OVC047 09/09 Q1032
LFRH 192000Z AUTO 00000KT 9999 SCT006 BKN036 OVC048 09/08 Q1032 
LFRH 191930Z AUTO 24001KT 9999 FEW006 BKN027 BKN035 09/08 Q1032 
LFRH 191900Z AUTO 22003KT 9999 FEW006 SCT026 OVC033 09/09 Q1031 
LFRH 191830Z AUTO 13003KT 9999 BKN005 BKN024 OVC033 10/09 Q1031 
LFRH 191800Z AUTO 26002KT 9999 BKN005 BKN009 BKN020 10/09 Q1031 
LFRH 191730Z AUTO 27005KT 9999 FEW008 SCT022 BKN031 10/08 Q1031 
LFRH 191700Z AUTO 25006KT 150V290 9999 BKN028 OVC036 10/07 Q1031
LFRH 191630Z AUTO 27007KT 9999 FEW012 SCT017 BKN026 10/08 Q1031 
LFRH 191600Z AUTO 23005KT 170V260 9999 -RA BKN011 BKN018 BKN027 10/07 Q1030 
LFRH 191530Z AUTO 26006KT 9999 -RA FEW012 BKN025 OVC032 10/07 Q1030 
LFRH 191500Z AUTO 26007KT 9999 FEW027 BKN034 OVC041 11/06 Q1030 
LFRH 191430Z AUTO 25006KT 9999 SCT034 OVC042 12/06 Q1030
LFRH 191400Z AUTO 26004KT 220V290 9999 SCT026 BKN032 OVC039 11/06 Q1030 
LFRH 191330Z AUTO 28006KT 240V320 9999 BKN027 OVC035 11/06 Q1030
LFRH 191300Z AUTO 25005KT 210V280 9999 OVC030 11/06 Q1030   
LFRH 191230Z AUTO 20006KT 140V260 9999 BKN027 OVC032 11/06 Q1031
LFRH 191200Z AUTO 28004KT 250V320 9999 FEW023 BKN029 OVC034 11/06 Q1031 
LFRH 191130Z AUTO VRB03KT 9999 FEW023 BKN032 OVC040 11/07 Q1030 
LFRH 191100Z AUTO VRB02KT 9999 SCT022 BKN029 OVC048 11/06 Q1030 
LFRH 191030Z AUTO VRB01KT 9999 BKN021 BKN028 OVC039 11/06 Q1030 
LFRH 191000Z AUTO 00000KT 9999 FEW018 BKN035 OVC042 11/06 Q1030 
LFRH 190930Z AUTO VRB01KT 9999 OVC033 10/07 Q1030   
LFRH 190900Z AUTO VRB02KT 9999 OVC035 09/08 Q1030   
LFRH 190830Z AUTO 03003KT 9999 BKN036 OVC130 09/08 Q1029
LFRH 190800Z AUTO 01004KT 330V040 9999 BKN039 BKN130 OVC160 08/07 Q1029 
LFRH 190730Z AUTO 36003KT 330V100 9999 FEW034 BKN130 OVC160 08/08 Q1029 NOSIG   
LFRH 190700Z AUTO 01003KT 8000 BKN034 OVC160 06/06 Q1029 TEMPO 2000 BR